Time;durP1;ratioP1;P1;durP2;ratioP2;P2;SDS_P1;SDS_P2;PMS_P1;PMS_P2;Temp;Humidity;BMP_temperature;BMP_pressure;BME280_temperature;BME280_humidity;BME280_pressure;Samples;Min_cycle;Max_cycle;Signal;HPM_P1;HPM_P2
2021/03/04 00:02:22;;;;;;;39.93;21.67;;;8.10;1.00;;;;;;5093057;28;20270;-69
2021/03/04 00:04:48;;;;;;;35.80;21.83;;;8.20;1.00;;;;;;5092725;28;20173;-69
2021/03/04 00:07:14;;;;;;;32.63;20.60;;;8.30;1.00;;;;;;5092822;28;20190;-69
2021/03/04 00:09:39;;;;;;;39.37;22.27;;;8.40;1.00;;;;;;5092945;28;20171;-69
2021/03/04 00:12:05;;;;;;;41.63;22.63;;;8.20;1.00;;;;;;5092951;28;20220;-69
2021/03/04 00:14:31;;;;;;;40.50;22.00;;;8.30;1.00;;;;;;5092687;28;20208;-68
2021/03/04 00:16:56;;;;;;;40.93;20.93;;;8.10;1.00;;;;;;5092832;28;20852;-68
2021/03/04 00:19:22;;;;;;;40.13;22.80;;;8.00;1.00;;;;;;5094119;28;20584;-69
2021/03/04 00:21:48;;;;;;;31.93;22.33;;;8.20;1.00;;;;;;5096598;28;20191;-68
2021/03/04 00:24:14;;;;;;;34.70;21.07;;;8.20;1.00;;;;;;5096613;28;20774;-69
2021/03/04 00:26:39;;;;;;;34.37;21.97;;;8.10;1.00;;;;;;5097659;28;20494;-69
2021/03/04 00:29:05;;;;;;;33.90;20.23;;;8.10;1.00;;;;;;5096527;28;20172;-69
2021/03/04 00:31:31;;;;;;;42.30;21.07;;;8.00;1.00;;;;;;5096463;28;20321;-69
2021/03/04 00:33:56;;;;;;;42.03;20.53;;;7.90;1.00;;;;;;5096701;28;20295;-68
2021/03/04 00:36:22;;;;;;;39.17;20.27;;;7.90;1.00;;;;;;5096328;28;20210;-69
2021/03/04 00:38:47;;;;;;;46.60;22.00;;;8.00;1.00;;;;;;5096658;28;20171;-69
2021/03/04 00:41:13;;;;;;;41.97;20.87;;;8.00;1.00;;;;;;5096361;28;20318;-68
2021/03/04 00:43:38;;;;;;;32.97;19.43;;;8.00;1.00;;;;;;5096714;28;20254;-69
2021/03/04 00:46:04;;;;;;;32.80;20.43;;;7.80;1.00;;;;;;5096219;28;20177;-68
2021/03/04 00:48:29;;;;;;;41.07;21.40;;;7.60;1.00;;;;;;5096141;28;20194;-69
2021/03/04 00:50:55;;;;;;;42.43;21.07;;;7.90;1.00;;;;;;5096025;28;20168;-69
2021/03/04 00:53:21;;;;;;;37.90;21.40;;;8.00;1.00;;;;;;5096075;28;20537;-69
2021/03/04 00:55:47;;;;;;;38.43;21.90;;;8.10;1.00;;;;;;5096206;28;20437;-69
2021/03/04 00:58:12;;;;;;;49.67;21.33;;;8.10;1.00;;;;;;5095958;28;20240;-69
2021/03/04 01:00:38;;;;;;;32.50;20.47;;;8.00;1.00;;;;;;5096067;28;20584;-68
2021/03/04 01:03:04;;;;;;;40.20;21.00;;;8.00;1.00;;;;;;5095857;28;20184;-69
2021/03/04 01:05:30;;;;;;;36.83;19.43;;;8.00;1.00;;;;;;5094546;28;20445;-69
2021/03/04 01:07:56;;;;;;;37.15;21.75;;;8.00;1.00;;;;;;5095831;28;20646;-68
2021/03/04 01:10:36;;;;;;;31.17;18.80;;;7.70;1.00;;;;;;5096260;28;20171;-69
2021/03/04 01:13:02;;;;;;;44.03;21.53;;;7.50;1.00;;;;;;5095591;28;20199;-69
2021/03/04 01:15:29;;;;;;;41.70;21.40;;;7.60;1.00;;;;;;5095970;28;20440;-69
2021/03/04 01:17:55;;;;;;;40.72;21.85;;;7.70;1.00;;;;;;5095782;28;20501;-69
2021/03/04 01:20:21;;;;;;;44.17;21.43;;;7.60;1.00;;;;;;5095838;28;20171;-69
2021/03/04 01:22:46;;;;;;;43.97;21.33;;;7.40;1.00;;;;;;5095447;28;20555;-68
2021/03/04 01:25:13;;;;;;;42.00;21.73;;;7.50;1.00;;;;;;5095809;28;20450;-69
2021/03/04 01:27:38;;;;;;;39.80;21.00;;;7.40;1.00;;;;;;5095524;28;20175;-69
2021/03/04 01:30:06;;;;;;;40.90;21.10;;;7.30;1.00;;;;;;5095565;28;20406;-69
2021/03/04 01:32:32;;;;;;;42.65;21.00;;;7.40;1.00;;;;;;5095217;28;20201;-69
2021/03/04 01:34:58;;;;;;;40.30;20.13;;;7.50;1.00;;;;;;5095479;28;20266;-68
2021/03/04 01:37:23;;;;;;;43.37;21.97;;;7.40;1.00;;;;;;5095650;28;20558;-69
2021/03/04 01:39:49;;;;;;;35.33;20.97;;;7.40;1.00;;;;;;5095253;28;20167;-69
2021/03/04 01:42:14;;;;;;;43.40;22.63;;;7.70;1.00;;;;;;5095171;28;20431;-69
2021/03/04 01:44:40;;;;;;;33.33;21.40;;;7.90;1.00;;;;;;5095173;28;20171;-69
2021/03/04 01:47:07;;;;;;;43.67;22.50;;;7.80;1.00;;;;;;5095111;28;20242;-69
2021/03/04 01:49:33;;;;;;;37.00;21.88;;;7.80;1.00;;;;;;5095056;28;20667;-69
2021/03/04 01:51:59;;;;;;;40.30;22.17;;;7.60;1.00;;;;;;5095244;28;20612;-69
2021/03/04 01:54:25;;;;;;;34.20;22.83;;;7.70;1.00;;;;;;5094983;28;20179;-69
2021/03/04 01:56:50;;;;;;;39.97;21.63;;;7.80;1.00;;;;;;5093649;28;20423;-69
2021/03/04 01:59:16;;;;;;;35.63;20.50;;;7.70;1.00;;;;;;5095193;28;20471;-68
2021/03/04 02:01:42;;;;;;;39.67;22.13;;;7.70;1.00;;;;;;5094949;28;20190;-69
2021/03/04 02:04:07;;;;;;;49.97;22.27;;;7.70;1.00;;;;;;5094841;28;20167;-69
2021/03/04 02:06:46;;;;;;;37.43;21.00;;;7.90;1.00;;;;;;5094678;28;20493;-69
2021/03/04 02:09:13;;;;;;;36.15;21.20;;;8.00;1.00;;;;;;5094670;28;20168;-68
2021/03/04 02:11:53;;;;;;;40.08;23.20;;;8.00;1.00;;;;;;5094814;28;20701;-68
2021/03/04 02:14:32;;;;;;;36.53;21.77;;;7.70;1.00;;;;;;5094656;28;20175;-68
2021/03/04 02:17:02;;;;;;;41.53;21.33;;;7.70;1.00;;;;;;5094503;28;20188;-68
2021/03/04 02:19:27;;;;;;;39.08;22.90;;;7.60;1.00;;;;;;5094488;28;20188;-68
2021/03/04 02:22:07;;;;;;;46.47;23.03;;;7.80;1.00;;;;;;5094322;28;20546;-68
2021/03/04 02:24:56;;;;;;;51.65;22.90;;;8.00;1.00;;;;;;5094404;28;20156;-68
2021/03/04 02:27:25;;;;;;;38.72;23.58;;;8.00;1.00;;;;;;5094432;28;20148;-68
2021/03/04 02:30:05;;;;;;;36.05;21.92;;;8.00;1.00;;;;;;5094334;28;20509;-68
2021/03/04 02:32:32;;;;;;;43.53;23.50;;;7.90;1.00;;;;;;5094175;28;20191;-68
2021/03/04 02:35:13;;;;;;;42.75;23.52;;;7.70;1.00;;;;;;5094178;28;20265;-68
2021/03/04 02:37:46;;;;;;;42.75;23.27;;;7.90;1.00;;;;;;5093947;28;20199;-68
2021/03/04 02:40:14;;;;;;;35.10;23.73;;;7.70;1.00;;;;;;5094482;28;20160;-68
2021/03/04 02:42:40;;;;;;;47.33;24.38;;;7.70;99.90;;;;;;5093319;28;20187;-68
2021/03/04 02:45:08;;;;;;;43.10;22.38;;;8.00;76.60;;;;;;5094354;28;20233;-68
2021/03/04 02:47:34;;;;;;;43.63;22.73;;;8.20;3.40;;;;;;5093829;28;20168;-68
2021/03/04 02:50:01;;;;;;;35.95;22.55;;;8.10;99.90;;;;;;5094247;28;20251;-68
2021/03/04 02:52:27;;;;;;;44.28;23.13;;;8.20;86.80;;;;;;5094075;28;20183;-69
2021/03/04 02:54:53;;;;;;;40.30;24.03;;;8.10;96.30;;;;;;5093948;28;20537;-68
2021/03/04 02:57:20;;;;;;;43.83;22.70;;;7.90;99.90;;;;;;5094208;28;20453;-68
2021/03/04 02:59:47;;;;;;;38.47;23.20;;;7.90;99.90;;;;;;5093620;28;20395;-68
2021/03/04 03:02:13;;;;;;;39.07;23.50;;;7.90;99.90;;;;;;5093566;28;20542;-68
2021/03/04 03:04:41;;;;;;;46.30;23.38;;;8.00;99.90;;;;;;5093563;28;20485;-68
2021/03/04 03:07:08;;;;;;;43.97;24.30;;;8.00;99.90;;;;;;5093561;28;20210;-68
2021/03/04 03:09:37;;;;;;;43.38;24.38;;;8.00;99.90;;;;;;5093632;28;20156;-68
2021/03/04 03:12:03;;;;;;;41.73;22.20;;;8.00;99.90;;;;;;5093375;28;20203;-68
2021/03/04 03:14:29;;;;;;;36.25;22.88;;;8.00;99.90;;;;;;5093662;28;20417;-68
2021/03/04 03:16:55;;;;;;;43.10;24.50;;;7.90;99.90;;;;;;5093672;28;20285;-68
2021/03/04 03:19:21;;;;;;;41.60;23.55;;;7.80;99.90;;;;;;5093614;28;20163;-67
2021/03/04 03:21:47;;;;;;;39.70;23.87;;;7.80;99.90;;;;;;5093359;28;20553;-68
2021/03/04 03:24:13;;;;;;;37.13;23.90;;;7.90;99.90;;;;;;5093535;28;20168;-68
2021/03/04 03:26:38;;;;;;;36.67;22.70;;;7.70;99.90;;;;;;5093485;28;20710;-68
2021/03/04 03:29:04;;;;;;;43.17;23.20;;;8.00;99.90;;;;;;5093484;28;20267;-68
2021/03/04 03:31:32;;;;;;;40.10;24.83;;;8.30;99.90;;;;;;5093080;28;20199;-68
2021/03/04 03:33:59;;;;;;;46.65;22.95;;;8.30;99.90;;;;;;5093466;28;20406;-68
2021/03/04 03:36:26;;;;;;;39.70;22.83;;;8.20;99.90;;;;;;5093123;28;20191;-68
2021/03/04 03:38:53;;;;;;;39.13;24.00;;;8.10;99.90;;;;;;5093370;28;20180;-68
2021/03/04 03:41:19;;;;;;;42.20;22.60;;;8.20;99.90;;;;;;5092893;28;20421;-68
2021/03/04 03:43:47;;;;;;;36.90;23.17;;;8.00;99.90;;;;;;5092897;28;20757;-69
2021/03/04 03:46:14;;;;;;;42.35;23.98;;;8.00;99.90;;;;;;5093132;28;20680;-68
2021/03/04 03:48:40;;;;;;;43.28;23.55;;;8.00;99.90;;;;;;5092995;28;20742;-68
2021/03/04 03:51:08;;;;;;;42.00;22.38;;;8.10;99.90;;;;;;5092822;28;20188;-68
2021/03/04 03:53:34;;;;;;;38.72;23.55;;;8.10;99.90;;;;;;5091910;28;20163;-68
2021/03/04 03:56:00;;;;;;;41.10;23.73;;;7.70;99.90;;;;;;5093018;28;20258;-68
2021/03/04 03:58:27;;;;;;;39.53;21.80;;;7.80;1.00;;;;;;5093110;28;20531;-68
2021/03/04 04:00:55;;;;;;;36.72;23.40;;;7.90;99.90;;;;;;5092680;28;20168;-67
2021/03/04 04:03:21;;;;;;;38.67;23.20;;;8.00;99.90;;;;;;5093061;28;20178;-68
2021/03/04 04:05:48;;;;;;;41.28;23.50;;;8.00;99.90;;;;;;5092783;28;20402;-67
2021/03/04 04:08:14;;;;;;;39.40;23.17;;;7.70;99.90;;;;;;5092946;28;20191;-68
2021/03/04 04:10:40;;;;;;;39.90;22.93;;;7.70;1.00;;;;;;5093007;28;20221;-68
2021/03/04 04:13:06;;;;;;;39.97;22.70;;;7.90;1.00;;;;;;5092470;28;20812;-68
2021/03/04 04:15:32;;;;;;;40.22;23.50;;;7.90;99.90;;;;;;5092885;28;20175;-68
2021/03/04 04:18:02;;;;;;;46.27;22.67;;;8.00;99.90;;;;;;5092525;28;20195;-68
2021/03/04 04:20:28;;;;;;;36.30;22.75;;;7.80;99.90;;;;;;5092693;28;20185;-69
2021/03/04 04:22:56;;;;;;;42.83;22.53;;;7.80;1.00;;;;;;5092515;28;20587;-68
2021/03/04 04:25:22;;;;;;;40.93;24.13;;;7.60;1.00;;;;;;5092934;28;20478;-69
2021/03/04 04:27:50;;;;;;;54.93;25.70;;;7.80;1.00;;;;;;5092515;28;20471;-68
2021/03/04 04:30:17;;;;;;;40.38;24.15;;;7.90;99.90;;;;;;5092881;28;20417;-68
2021/03/04 04:32:42;;;;;;;41.30;23.57;;;7.90;99.90;;;;;;5092606;28;20266;-68
2021/03/04 04:35:09;;;;;;;45.03;25.10;;;8.00;99.90;;;;;;5092848;28;20498;-68
2021/03/04 04:37:34;;;;;;;45.65;23.25;;;7.60;99.90;;;;;;5092389;28;20199;-68
2021/03/04 04:40:00;;;;;;;39.83;24.00;;;7.80;1.00;;;;;;5092485;28;20166;-68
2021/03/04 04:42:25;;;;;;;40.70;24.50;;;7.90;1.00;;;;;;5092644;28;20192;-68
2021/03/04 04:44:51;;;;;;;43.10;25.43;;;7.90;99.90;;;;;;5092444;28;20213;-69
2021/03/04 04:47:16;;;;;;;45.00;25.27;;;7.80;1.00;;;;;;5092514;28;20164;-68
2021/03/04 04:49:42;;;;;;;41.90;24.30;;;7.80;1.00;;;;;;5092755;28;20196;-68
2021/03/04 04:52:08;;;;;;;40.40;24.53;;;7.90;99.90;;;;;;5092446;28;20727;-68
2021/03/04 04:54:34;;;;;;;42.87;26.20;;;7.80;99.90;;;;;;5092814;28;20168;-69
2021/03/04 04:56:59;;;;;;;41.23;23.57;;;8.00;99.90;;;;;;5092233;28;20806;-68
2021/03/04 04:59:25;;;;;;;32.83;23.77;;;8.20;99.90;;;;;;5092465;28;20177;-68
2021/03/04 05:01:50;;;;;;;40.90;24.40;;;8.20;99.90;;;;;;5091359;28;20272;-68
2021/03/04 05:04:16;;;;;;;42.20;24.70;;;8.00;94.50;;;;;;5092544;28;20164;-68
2021/03/04 05:06:41;;;;;;;51.00;27.37;;;7.70;99.90;;;;;;5095488;28;20172;-68
2021/03/04 05:09:07;;;;;;;43.00;25.40;;;7.70;99.90;;;;;;5096214;28;20163;-67
2021/03/04 05:11:32;;;;;;;35.00;24.27;;;7.90;1.00;;;;;;5095756;28;20205;-68
2021/03/04 05:13:58;;;;;;;42.70;24.67;;;7.90;1.00;;;;;;5095768;28;20174;-68
2021/03/04 05:16:23;;;;;;;35.30;22.20;;;7.80;99.90;;;;;;5095668;28;20602;-68
2021/03/04 05:18:49;;;;;;;43.43;24.77;;;7.80;1.00;;;;;;5095906;28;20167;-69
2021/03/04 05:21:15;;;;;;;42.07;25.23;;;7.80;1.00;;;;;;5095694;28;20204;-68
2021/03/04 05:23:40;;;;;;;48.35;24.88;;;7.80;1.00;;;;;;5095594;28;20164;-69
2021/03/04 05:26:06;;;;;;;39.47;24.00;;;8.10;1.00;;;;;;5095508;28;20170;-69
2021/03/04 05:28:32;;;;;;;39.60;25.30;;;8.10;1.00;;;;;;5095368;28;20165;-68
2021/03/04 05:30:57;;;;;;;41.30;24.67;;;8.20;99.90;;;;;;5095291;28;20168;-68
2021/03/04 05:33:23;;;;;;;47.57;24.57;;;8.10;99.90;;;;;;5095864;28;20172;-68
2021/03/04 05:35:48;;;;;;;53.73;26.77;;;8.20;99.90;;;;;;5095276;28;20182;-68
2021/03/04 05:38:14;;;;;;;40.30;25.93;;;8.40;99.90;;;;;;5095283;28;20588;-68
2021/03/04 05:40:40;;;;;;;45.80;24.57;;;8.50;99.90;;;;;;5093987;28;20167;-69
2021/03/04 05:43:05;;;;;;;50.00;26.27;;;8.40;82.20;;;;;;5095334;28;20180;-69
2021/03/04 05:45:33;;;;;;;40.33;25.47;;;8.30;94.50;;;;;;5095462;28;20250;-68
2021/03/04 05:48:02;;;;;;;38.42;25.15;;;8.20;87.80;;;;;;5094989;28;20167;-68
2021/03/04 05:50:28;;;;;;;43.40;25.03;;;8.20;57.40;;;;;;5095298;28;20588;-69
2021/03/04 05:52:59;;;;;;;45.08;25.92;;;8.30;57.50;;;;;;5095000;28;20456;-68
2021/03/04 05:55:25;;;;;;;41.25;25.63;;;8.40;1.00;;;;;;5094993;28;20171;-69
2021/03/04 05:57:51;;;;;;;40.15;24.13;;;8.40;8.10;;;;;;5095034;28;20536;-68
2021/03/04 06:00:18;;;;;;;47.57;24.80;;;8.50;1.00;;;;;;5094951;28;20543;-69
2021/03/04 06:02:46;;;;;;;55.73;26.13;;;8.50;15.30;;;;;;5094487;28;20425;-68
2021/03/04 06:05:13;;;;;;;41.10;23.93;;;8.50;1.00;;;;;;5094827;28;20425;-69
2021/03/04 06:07:44;;;;;;;45.28;26.50;;;8.50;1.00;;;;;;5094534;28;20430;-69
2021/03/04 06:10:11;;;;;;;41.40;24.53;;;8.40;36.60;;;;;;5094756;28;20530;-69
2021/03/04 06:12:37;;;;;;;40.58;24.38;;;8.50;37.30;;;;;;5094199;28;20430;-69
2021/03/04 06:15:03;;;;;;;58.43;25.57;;;8.40;99.90;;;;;;5094310;28;20176;-69
2021/03/04 06:17:29;;;;;;;48.47;24.40;;;8.40;99.90;;;;;;5092092;28;20206;-69
2021/03/04 06:19:59;;;;;;;47.50;26.90;;;8.40;99.90;;;;;;5094149;28;20902;-69
2021/03/04 06:22:30;;;;;;;44.03;27.93;;;8.40;99.90;;;;;;5094024;28;20537;-69
2021/03/04 06:24:58;;;;;;;52.00;26.83;;;8.20;1.00;;;;;;5094219;28;20495;-68
2021/03/04 06:27:29;;;;;;;44.80;28.47;;;8.10;99.90;;;;;;5094039;28;20467;-69
2021/03/04 06:29:58;;;;;;;46.80;27.02;;;8.20;90.00;;;;;;5094311;28;20464;-69
2021/03/04 06:32:25;;;;;;;46.83;26.60;;;8.50;1.00;;;;;;5093838;28;20188;-69
2021/03/04 06:35:05;;;;;;;45.40;28.10;;;8.50;1.00;;;;;;5094123;28;20173;-68
2021/03/04 06:37:32;;;;;;;44.03;27.75;;;8.60;1.00;;;;;;5094397;28;20445;-69
2021/03/04 06:39:58;;;;;;;50.57;27.30;;;8.30;99.90;;;;;;5093819;28;20219;-69
2021/03/04 06:42:24;;;;;;;51.80;28.20;;;8.30;1.00;;;;;;5093797;28;20857;-69
2021/03/04 06:44:55;;;;;;;49.10;29.10;;;8.10;1.00;;;;;;5094251;28;20163;-69
2021/03/04 06:47:28;;;;;;;42.42;26.13;;;8.10;99.90;;;;;;5094201;28;20527;-68
2021/03/04 06:49:55;;;;;;;41.83;24.98;;;8.20;1.00;;;;;;5093570;28;20281;-68
2021/03/04 06:52:29;;;;;;;43.50;25.95;;;7.80;1.00;;;;;;5093856;28;20220;-68
2021/03/04 06:55:10;;;;;;;41.58;25.25;;;8.20;99.90;;;;;;5093547;28;20169;-69
2021/03/04 06:57:36;;;;;;;43.85;27.80;;;7.90;99.90;;;;;;5093625;28;20248;-69
2021/03/04 07:00:03;;;;;;;42.77;24.97;;;8.00;99.90;;;;;;5093618;28;20661;-67
2021/03/04 07:02:29;;;;;;;46.95;27.17;;;8.20;99.90;;;;;;5093639;28;20189;-69
2021/03/04 07:05:00;;;;;;;49.80;29.03;;;7.90;99.90;;;;;;5093553;28;20256;-68
2021/03/04 07:07:27;;;;;;;47.23;27.30;;;8.00;1.00;;;;;;5093131;28;20435;-69
2021/03/04 07:09:58;;;;;;;49.83;27.75;;;8.20;1.00;;;;;;5093297;28;20471;-69
2021/03/04 07:12:26;;;;;;;46.63;26.60;;;8.00;99.90;;;;;;5093458;28;20737;-69
2021/03/04 07:14:53;;;;;;;53.85;29.27;;;8.10;1.00;;;;;;5093687;28;20420;-69
2021/03/04 07:17:25;;;;;;;47.00;27.40;;;8.00;92.00;;;;;;5093911;28;20636;-69
2021/03/04 07:19:56;;;;;;;40.72;24.85;;;8.00;99.90;;;;;;5091732;28;20272;-69
2021/03/04 07:22:22;;;;;;;42.70;26.50;;;8.20;1.00;;;;;;5092989;28;20594;-69
2021/03/04 07:24:48;;;;;;;42.47;25.95;;;8.10;99.90;;;;;;5093623;28;20707;-69
2021/03/04 07:27:15;;;;;;;43.83;27.23;;;8.10;99.90;;;;;;5093143;28;20214;-69
2021/03/04 07:29:42;;;;;;;43.33;27.93;;;8.20;99.90;;;;;;5092861;28;20176;-69
2021/03/04 07:32:09;;;;;;;49.77;27.60;;;8.50;99.90;;;;;;5092749;28;20513;-67
2021/03/04 07:34:37;;;;;;;50.88;28.70;;;8.50;1.00;;;;;;5092884;28;20410;-68
2021/03/04 07:37:03;;;;;;;47.75;31.48;;;8.20;1.00;;;;;;5092835;28;20187;-68
2021/03/04 07:39:34;;;;;;;46.38;29.75;;;7.90;99.90;;;;;;5093582;28;20172;-68
2021/03/04 07:42:00;;;;;;;45.22;30.98;;;7.90;99.90;;;;;;5093166;28;20194;-67
2021/03/04 07:44:30;;;;;;;46.10;30.20;;;7.80;99.90;;;;;;5092946;28;20172;-68
2021/03/04 07:47:01;;;;;;;44.43;31.50;;;7.90;1.00;;;;;;5092975;28;20195;-67
2021/03/04 07:49:35;;;;;;;48.55;30.23;;;7.80;1.00;;;;;;5092483;28;20773;-69
2021/03/04 07:52:14;;;;;;;49.75;31.40;;;8.10;96.20;;;;;;5092977;28;20197;-69
2021/03/04 07:54:41;;;;;;;47.38;32.08;;;8.10;1.00;;;;;;5092939;28;20738;-68
2021/03/04 07:57:15;;;;;;;40.88;29.80;;;8.10;99.90;;;;;;5092767;28;20230;-68
2021/03/04 07:59:57;;;;;;;39.22;28.55;;;8.00;1.00;;;;;;5092820;28;20156;-68
2021/03/04 08:02:28;;;;;;;44.90;30.08;;;8.00;1.00;;;;;;5092587;28;20192;-68
2021/03/04 08:05:12;;;;;;;41.67;27.47;;;8.30;36.30;;;;;;5092644;28;20198;-68
2021/03/04 08:07:39;;;;;;;41.07;27.77;;;8.50;1.00;;;;;;5092747;28;20421;-68
2021/03/04 08:10:10;;;;;;;47.72;28.92;;;8.50;1.00;;;;;;5092854;28;20445;-68
2021/03/04 08:12:58;;;;;;;40.30;28.27;;;8.50;99.90;;;;;;5092778;28;20563;-70
2021/03/04 08:15:35;;;;;;;38.67;28.40;;;8.40;99.90;;;;;;5092943;28;20394;-69
2021/03/04 08:18:01;;;;;;;43.05;29.13;;;8.60;99.90;;;;;;5092850;28;20447;-69
2021/03/04 08:20:27;;;;;;;41.80;29.27;;;8.60;69.30;;;;;;5092622;28;20210;-68
2021/03/04 08:22:55;;;;;;;35.77;28.07;;;8.60;1.00;;;;;;5092679;28;20772;-67
2021/03/04 08:25:26;;;;;;;33.63;25.70;;;8.50;1.00;;;;;;5092642;28;20401;-68
2021/03/04 08:27:56;;;;;;;39.80;26.50;;;8.60;99.90;;;;;;5092640;28;20411;-68
2021/03/04 08:30:28;;;;;;;38.27;26.90;;;8.70;1.00;;;;;;5092678;28;20438;-68
2021/03/04 08:32:55;;;;;;;38.50;25.83;;;8.90;1.00;;;;;;5092473;28;20434;-67
2021/03/04 08:35:22;;;;;;;36.50;27.90;;;8.90;99.90;;;;;;5092966;28;20776;-68
2021/03/04 08:38:03;;;;;;;38.20;26.63;;;8.90;99.90;;;;;;5092158;28;20457;-68
2021/03/04 08:40:36;;;;;;;34.93;25.67;;;8.90;99.90;;;;;;5094601;28;20421;-67
2021/03/04 08:43:10;;;;;;;35.90;25.90;;;8.70;99.90;;;;;;5095980;28;20487;-68
2021/03/04 08:45:36;;;;;;;34.73;25.10;;;8.50;1.00;;;;;;5096437;28;20385;-68
2021/03/04 08:48:07;;;;;;;45.00;27.17;;;8.80;99.90;;;;;;5096078;28;20482;-67
2021/03/04 08:50:54;;;;;;;42.65;29.23;;;9.00;99.90;;;;;;5096043;28;20175;-69
2021/03/04 08:53:25;;;;;;;44.10;30.30;;;8.70;1.00;;;;;;5095405;28;20224;-68
2021/03/04 08:55:52;;;;;;;45.85;30.00;;;8.90;99.90;;;;;;5094549;28;20826;-68
2021/03/04 08:58:19;;;;;;;43.88;29.20;;;8.70;99.90;;;;;;5095995;28;20195;-67
2021/03/04 09:00:54;;;;;;;46.80;30.45;;;9.00;99.90;;;;;;5095944;28;20168;-69
2021/03/04 09:03:21;;;;;;;45.60;28.63;;;8.80;1.00;;;;;;5096175;28;20183;-69
2021/03/04 09:05:47;;;;;;;49.73;29.47;;;8.90;1.00;;;;;;5096899;28;20401;-69
2021/03/04 09:08:15;;;;;;;48.00;31.30;;;9.10;1.00;;;;;;5096012;28;20425;-69
2021/03/04 09:10:51;;;;;;;43.07;30.37;;;9.10;99.90;;;;;;5095832;28;20409;-68
2021/03/04 09:13:24;;;;;;;47.97;29.92;;;8.80;1.00;;;;;;5095723;28;20405;-69
2021/03/04 09:15:56;;;;;;;45.23;30.43;;;8.50;1.00;;;;;;5095834;28;20172;-70
2021/03/04 09:18:23;;;;;;;47.03;30.10;;;8.90;99.90;;;;;;5095702;28;20566;-69
2021/03/04 09:20:50;;;;;;;46.23;30.83;;;8.90;1.00;;;;;;5095615;28;20507;-69
2021/03/04 09:23:16;;;;;;;47.15;32.38;;;9.10;99.90;;;;;;5094265;28;20408;-69
2021/03/04 09:25:43;;;;;;;59.77;40.10;;;9.10;1.00;;;;;;5095534;28;20172;-68
2021/03/04 09:28:13;;;;;;;69.20;42.13;;;9.10;99.90;;;;;;5095281;28;20424;-68
2021/03/04 09:30:38;;;;;;;62.70;40.73;;;9.10;99.90;;;;;;5095426;28;20406;-68
2021/03/04 09:33:16;;;;;;;49.23;35.53;;;9.00;99.90;;;;;;5095804;28;20910;-70
2021/03/04 09:36:10;;;;;;;46.83;33.37;;;9.00;99.90;;;;;;5095186;28;20864;-69
2021/03/04 09:38:37;;;;;;;45.70;32.45;;;8.90;99.90;;;;;;5095257;28;20759;-70
2021/03/04 09:41:14;;;;;;;44.33;31.80;;;9.00;99.90;;;;;;5095141;28;20227;-69
2021/03/04 09:43:43;;;;;;;46.33;31.83;;;9.10;1.00;;;;;;5095025;28;20177;-69
2021/03/04 09:46:09;;;;;;;44.70;31.57;;;9.10;99.90;;;;;;5094945;28;20415;-69
2021/03/04 09:48:38;;;;;;;38.47;28.97;;;9.30;1.00;;;;;;5094881;28;20409;-69
2021/03/04 09:51:04;;;;;;;54.70;35.80;;;9.40;1.00;;;;;;5095061;28;20437;-69
2021/03/04 09:53:30;;;;;;;44.53;29.80;;;9.20;99.90;;;;;;5094468;28;20397;-68
2021/03/04 09:55:56;;;;;;;46.37;30.93;;;8.90;99.90;;;;;;5094767;28;20405;-69
2021/03/04 09:58:23;;;;;;;50.57;31.07;;;9.30;1.00;;;;;;5094581;28;20456;-69
2021/03/04 10:00:59;;;;;;;45.80;31.77;;;9.30;99.90;;;;;;5094901;28;20463;-68
2021/03/04 10:03:51;;;;;;;50.97;30.77;;;9.50;1.00;;;;;;5094518;28;20505;-69
2021/03/04 10:06:21;;;;;;;50.70;31.10;;;9.60;1.00;;;;;;5090628;28;20426;-69
2021/03/04 10:08:52;;;;;;;51.00;31.17;;;9.70;99.90;;;;;;5094365;28;20494;-69
2021/03/04 10:11:23;;;;;;;45.67;31.13;;;9.70;1.00;;;;;;5094570;28;20495;-68
2021/03/04 10:13:49;;;;;;;45.77;31.90;;;9.70;60.30;;;;;;5094436;28;20402;-68
2021/03/04 10:16:15;;;;;;;49.20;31.40;;;9.70;99.90;;;;;;5094187;28;20508;-69
2021/03/04 10:18:49;;;;;;;45.57;29.93;;;9.70;99.90;;;;;;5094895;28;20408;-70
2021/03/04 10:21:16;;;;;;;63.40;33.30;;;9.80;99.90;;;;;;5094497;28;20806;-69
2021/03/04 10:23:44;;;;;;;49.77;31.03;;;9.70;1.00;;;;;;5094833;28;20429;-69
2021/03/04 10:26:10;;;;;;;58.87;34.23;;;9.40;1.00;;;;;;5093930;28;20409;-69
2021/03/04 10:28:36;;;;;;;48.30;30.60;;;9.70;99.90;;;;;;5093956;28;20398;-69
2021/03/04 10:31:01;;;;;;;53.33;32.23;;;10.00;1.00;;;;;;5092343;28;20191;-69
2021/03/04 10:33:28;;;;;;;48.10;30.70;;;9.60;1.00;;;;;;5093816;28;20262;-68
2021/03/04 10:35:53;;;;;;;53.47;33.93;;;9.40;1.00;;;;;;5094139;28;20182;-69
2021/03/04 10:38:19;;;;;;;49.20;31.57;;;9.30;1.00;;;;;;5093623;28;20813;-69
2021/03/04 10:40:44;;;;;;;47.90;29.53;;;9.20;14.50;;;;;;5093739;28;20560;-69
2021/03/04 10:43:10;;;;;;;47.83;31.00;;;9.20;99.90;;;;;;5092361;28;20297;-69
2021/03/04 10:45:35;;;;;;;51.73;31.83;;;9.80;1.00;;;;;;5093832;28;20605;-69
2021/03/04 10:48:01;;;;;;;38.80;26.83;;;9.70;1.00;;;;;;5093593;28;20206;-68
2021/03/04 10:50:27;;;;;;;49.43;29.00;;;9.40;1.00;;;;;;5093509;28;20583;-68
2021/03/04 10:52:53;;;;;;;46.20;28.80;;;9.60;1.00;;;;;;5092456;28;20597;-69
2021/03/04 10:55:18;;;;;;;37.93;24.80;;;9.90;99.90;;;;;;5093759;28;20408;-69
2021/03/04 10:57:44;;;;;;;44.83;27.17;;;10.10;1.00;;;;;;5093351;28;20513;-69
2021/03/04 11:00:13;;;;;;;46.13;27.43;;;10.00;1.00;;;;;;5093391;28;20177;-69
2021/03/04 11:02:39;;;;;;;41.27;24.77;;;10.00;1.00;;;;;;5093197;28;20552;-69
2021/03/04 11:05:06;;;;;;;37.13;24.03;;;10.20;99.90;;;;;;5093175;28;20409;-68
2021/03/04 11:07:32;;;;;;;36.70;24.00;;;10.20;99.90;;;;;;5093297;28;20780;-68
2021/03/04 11:09:58;;;;;;;42.07;27.80;;;10.20;99.90;;;;;;5092201;28;20408;-69
2021/03/04 11:12:23;;;;;;;41.87;25.10;;;10.10;99.90;;;;;;5093001;28;20210;-69
2021/03/04 11:14:49;;;;;;;40.87;26.10;;;9.70;99.90;;;;;;5093717;28;20185;-69
2021/03/04 11:17:15;;;;;;;36.80;23.67;;;9.40;99.90;;;;;;5093456;28;20251;-68
2021/03/04 11:19:43;;;;;;;38.70;25.20;;;9.30;99.90;;;;;;5094483;28;20373;-69
2021/03/04 11:22:10;;;;;;;33.35;23.42;;;9.30;1.00;;;;;;5093469;28;20437;-69
2021/03/04 11:24:36;;;;;;;40.77;25.10;;;9.20;99.90;;;;;;5094336;28;20263;-68
2021/03/04 11:27:03;;;;;;;38.20;23.27;;;9.30;1.00;;;;;;5093971;28;20416;-67
2021/03/04 11:29:28;;;;;;;38.60;23.60;;;9.20;99.90;;;;;;5094115;28;20400;-68
2021/03/04 11:31:54;;;;;;;39.07;24.97;;;9.30;1.00;;;;;;5093329;28;20406;-68
2021/03/04 11:34:19;;;;;;;43.37;24.50;;;9.30;99.90;;;;;;5094156;28;20224;-68
2021/03/04 11:36:45;;;;;;;41.17;24.00;;;9.10;99.90;;;;;;5092349;28;20249;-68
2021/03/04 11:39:10;;;;;;;44.27;26.53;;;9.20;1.00;;;;;;5093178;28;20176;-68
2021/03/04 11:41:36;;;;;;;40.87;25.47;;;9.20;1.00;;;;;;5093053;28;20183;-68
2021/03/04 11:44:02;;;;;;;37.20;24.50;;;9.30;1.00;;;;;;5091330;28;20255;-68
2021/03/04 11:46:28;;;;;;;43.07;25.07;;;9.20;99.90;;;;;;5091363;28;20506;-67
2021/03/04 11:48:54;;;;;;;40.70;25.37;;;9.30;99.90;;;;;;5093030;28;20405;-68
2021/03/04 11:51:20;;;;;;;41.30;25.70;;;9.30;99.90;;;;;;5092621;28;20664;-68
2021/03/04 11:53:46;;;;;;;41.10;27.60;;;9.50;1.00;;;;;;5092816;28;20833;-68
2021/03/04 11:56:12;;;;;;;35.17;22.70;;;9.80;1.00;;;;;;5092939;28;20417;-68
2021/03/04 11:58:37;;;;;;;32.47;22.27;;;10.10;99.90;;;;;;5092068;28;20205;-66
2021/03/04 12:01:03;;;;;;;36.67;24.23;;;10.30;99.90;;;;;;5092485;28;20191;-69
2021/03/04 12:03:29;;;;;;;44.87;25.97;;;10.40;99.90;;;;;;5092849;28;20170;-69
2021/03/04 12:05:55;;;;;;;41.03;24.20;;;10.40;66.40;;;;;;5093001;28;20405;-68
2021/03/04 12:08:20;;;;;;;39.40;26.00;;;10.30;92.70;;;;;;5092261;28;20737;-69
2021/03/04 12:10:46;;;;;;;48.53;26.07;;;10.20;58.10;;;;;;5092208;28;20225;-69
2021/03/04 12:13:11;;;;;;;41.37;25.57;;;10.30;62.80;;;;;;5093229;28;20324;-68
2021/03/04 12:15:39;;;;;;;47.77;28.77;;;10.30;11.00;;;;;;5094628;28;20171;-69
2021/03/04 12:18:05;;;;;;;45.20;28.60;;;10.30;47.40;;;;;;5097290;28;20984;-69
2021/03/04 12:20:31;;;;;;;45.90;29.17;;;10.40;20.70;;;;;;5096416;28;20405;-69
2021/03/04 12:22:56;;;;;;;56.10;28.97;;;9.50;84.40;;;;;;5096272;28;20528;-69
2021/03/04 12:25:22;;;;;;;49.33;30.07;;;9.30;99.90;;;;;;5096175;28;20436;-69
2021/03/04 12:27:48;;;;;;;45.83;29.80;;;9.50;99.90;;;;;;5096347;28;20275;-70
2021/03/04 12:30:16;;;;;;;53.83;30.83;;;9.80;99.90;;;;;;5096202;28;20246;-70
2021/03/04 12:32:43;;;;;;;60.07;36.80;;;9.90;99.90;;;;;;5094999;28;20193;-70
2021/03/04 12:35:09;;;;;;;53.43;32.53;;;9.70;99.90;;;;;;5096180;28;20401;-70
2021/03/04 12:37:35;;;;;;;55.37;29.93;;;9.80;99.90;;;;;;5096569;28;20517;-70
2021/03/04 12:40:01;;;;;;;52.77;32.80;;;9.80;99.90;;;;;;5096588;28;20405;-70
2021/03/04 12:42:27;;;;;;;49.93;33.20;;;10.00;99.90;;;;;;5096815;28;20224;-70
2021/03/04 12:44:52;;;;;;;48.03;31.93;;;9.80;99.90;;;;;;5096140;28;20898;-70